createdAt,value
2018-03-25T00:02:06.076Z,9.50
2018-03-25T00:04:38.639Z,9.48
2018-03-25T00:07:11.235Z,9.46
2018-03-25T00:09:43.800Z,9.44
2018-03-25T00:12:16.355Z,9.42
2018-03-25T00:14:49.421Z,9.41
2018-03-25T00:17:22.224Z,9.37
2018-03-25T00:19:56.192Z,9.33
2018-03-25T00:22:28.764Z,9.32
2018-03-25T00:25:01.349Z,9.30
2018-03-25T00:27:34.715Z,9.28
2018-03-25T00:30:07.305Z,9.24
2018-03-25T00:32:39.852Z,9.24
2018-03-25T00:35:12.408Z,9.25
2018-03-25T00:37:44.966Z,9.24
2018-03-25T00:40:17.520Z,9.19
2018-03-25T00:42:50.104Z,9.13
2018-03-25T00:45:22.662Z,9.07
2018-03-25T00:47:55.217Z,9.09
2018-03-25T00:50:27.776Z,9.10
2018-03-25T00:53:00.350Z,9.10
2018-03-25T00:55:32.922Z,9.12
2018-03-25T00:58:05.503Z,9.13
2018-03-25T01:00:38.292Z,9.10
2018-03-25T01:03:10.914Z,9.05
2018-03-25T01:05:43.635Z,9.01
2018-03-25T01:08:16.196Z,9.01
2018-03-25T01:10:48.744Z,9.03
2018-03-25T01:13:21.329Z,9.00
2018-03-25T01:16:05.768Z,8.97
2018-03-25T01:18:38.346Z,8.97
2018-03-25T01:23:49.914Z,8.92
2018-03-25T01:26:22.462Z,8.90
2018-03-25T01:28:55.131Z,8.86
2018-03-25T01:31:27.724Z,8.82
2018-03-25T01:34:00.299Z,8.81
2018-03-25T01:36:33.160Z,8.85
2018-03-25T01:39:05.775Z,8.86
2018-03-25T01:41:38.309Z,8.84
2018-03-25T01:44:10.896Z,8.84
2018-03-25T01:46:43.464Z,8.82
2018-03-25T01:49:16.049Z,8.84
2018-03-25T01:51:48.619Z,8.81
2018-03-25T01:54:21.192Z,8.82
2018-03-25T01:56:53.750Z,8.78
2018-03-25T01:59:26.342Z,8.78
2018-03-25T02:01:58.891Z,8.76
2018-03-25T02:04:31.545Z,8.75
2018-03-25T02:07:04.135Z,8.72
2018-03-25T02:09:36.737Z,8.73
2018-03-25T02:12:09.321Z,8.76
2018-03-25T02:14:41.909Z,8.74
2018-03-25T02:17:14.501Z,8.72
2018-03-25T02:19:47.088Z,8.67
2018-03-25T02:24:58.363Z,8.64
2018-03-25T02:27:30.915Z,8.63
2018-03-25T02:30:03.501Z,8.65
2018-03-25T02:32:36.077Z,8.49
2018-03-25T02:37:47.665Z,8.04
2018-03-25T02:40:20.266Z,7.59
2018-03-25T02:42:52.861Z,8.06
2018-03-25T02:45:25.457Z,8.30
2018-03-25T02:47:58.024Z,8.43
2018-03-25T02:50:30.624Z,8.48
2018-03-25T02:53:03.182Z,8.53
2018-03-25T02:55:35.771Z,8.47
2018-03-25T02:58:08.323Z,8.32
2018-03-25T03:00:40.880Z,8.34
2018-03-25T03:03:13.429Z,8.34
2018-03-25T03:05:46.006Z,8.34
2018-03-25T03:08:18.554Z,8.32
2018-03-25T03:10:51.167Z,8.06
2018-03-25T03:13:23.750Z,8.36
2018-03-25T03:15:56.318Z,8.00
2018-03-25T03:18:28.900Z,7.90
2018-03-25T03:21:01.483Z,8.06
2018-03-25T03:23:34.069Z,8.19
2018-03-25T03:26:06.684Z,8.13
2018-03-25T03:28:39.219Z,8.18
2018-03-25T03:31:11.790Z,8.20
2018-03-25T03:33:44.375Z,8.16
2018-03-25T03:36:16.969Z,7.99
2018-03-25T03:38:49.546Z,7.96
2018-03-25T03:41:22.109Z,7.96
2018-03-25T03:43:54.675Z,8.03
2018-03-25T03:46:27.230Z,8.02
2018-03-25T03:48:59.834Z,8.06
2018-03-25T03:51:32.390Z,8.08
2018-03-25T03:54:04.955Z,8.05
2018-03-25T03:56:37.520Z,7.97
2018-03-25T03:59:10.093Z,8.00
2018-03-25T04:01:42.648Z,8.04
2018-03-25T04:04:15.245Z,8.03
2018-03-25T04:06:47.837Z,7.95
2018-03-25T04:09:20.410Z,8.01
2018-03-25T04:11:52.964Z,8.02
2018-03-25T04:14:25.569Z,7.97
2018-03-25T04:16:58.096Z,7.94
2018-03-25T04:19:30.703Z,7.94
2018-03-25T04:22:03.252Z,7.96
2018-03-25T04:24:35.834Z,7.99
2018-03-25T04:27:08.388Z,7.93
2018-03-25T04:29:40.930Z,7.97
2018-03-25T04:32:13.480Z,7.86
2018-03-25T04:34:46.053Z,7.74
2018-03-25T04:37:18.620Z,7.77
2018-03-25T04:39:51.191Z,7.70
2018-03-25T04:42:23.745Z,7.63
2018-03-25T04:44:56.322Z,7.61
2018-03-25T04:47:28.895Z,7.67
2018-03-25T04:50:01.467Z,7.34
2018-03-25T04:52:34.006Z,7.28
2018-03-25T04:55:06.597Z,7.26
2018-03-25T04:57:39.163Z,7.44
2018-03-25T05:00:11.742Z,7.24
2018-03-25T05:02:44.293Z,7.08
2018-03-25T05:05:16.867Z,6.69
2018-03-25T05:07:49.457Z,6.86
2018-03-25T05:10:22.028Z,6.76
2018-03-25T05:12:54.578Z,6.79
2018-03-25T05:15:27.186Z,6.85
2018-03-25T05:17:59.778Z,6.95
2018-03-25T05:20:32.377Z,6.80
2018-03-25T05:23:04.941Z,6.83
2018-03-25T05:25:37.516Z,7.04
2018-03-25T05:28:10.082Z,7.17
2018-03-25T05:30:43.606Z,7.17
2018-03-25T05:33:16.152Z,7.25
2018-03-25T05:35:48.720Z,7.10
2018-03-25T05:38:21.277Z,6.97
2018-03-25T05:40:53.839Z,6.86
2018-03-25T05:43:26.408Z,6.92
2018-03-25T05:45:59.001Z,6.96
2018-03-25T05:48:31.596Z,7.06
2018-03-25T05:51:04.145Z,6.86
2018-03-25T05:53:36.701Z,6.89
2018-03-25T05:56:09.303Z,6.83
2018-03-25T05:58:41.841Z,7.21
2018-03-25T06:01:14.424Z,7.50
2018-03-25T06:03:46.998Z,7.57
2018-03-25T06:06:19.605Z,7.36
2018-03-25T06:08:52.169Z,7.46
2018-03-25T06:11:24.741Z,7.94
2018-03-25T06:13:57.308Z,8.20
2018-03-25T06:16:29.877Z,7.95
2018-03-25T06:19:02.488Z,7.79
2018-03-25T06:21:35.056Z,7.91
2018-03-25T06:24:07.614Z,7.83
2018-03-25T06:26:40.187Z,7.84
2018-03-25T06:29:12.763Z,8.14
2018-03-25T06:31:45.364Z,8.14
2018-03-25T06:34:17.917Z,8.12
2018-03-25T06:36:50.482Z,8.36
2018-03-25T06:39:23.008Z,8.58
2018-03-25T06:41:55.550Z,8.51
2018-03-25T06:44:28.083Z,8.43
2018-03-25T06:47:00.652Z,8.73
2018-03-25T06:49:33.231Z,8.43
2018-03-25T06:52:05.776Z,8.61
2018-03-25T06:54:38.424Z,8.84
2018-03-25T06:57:11.002Z,9.03
2018-03-25T06:59:43.584Z,8.98
2018-03-25T07:02:16.149Z,8.91
2018-03-25T07:04:48.743Z,8.66
2018-03-25T07:07:21.295Z,8.77
2018-03-25T07:09:53.878Z,8.74
2018-03-25T07:12:26.460Z,8.92
2018-03-25T07:14:59.111Z,8.46
2018-03-25T07:17:31.667Z,8.92
2018-03-25T07:20:04.244Z,9.23
2018-03-25T07:22:36.820Z,9.48
2018-03-25T07:25:09.378Z,9.68
2018-03-25T07:27:42.842Z,9.87
2018-03-25T07:30:15.574Z,10.00
2018-03-25T07:32:48.162Z,10.13
2018-03-25T07:35:20.757Z,10.24
2018-03-25T07:37:53.312Z,10.28
2018-03-25T07:40:25.888Z,10.42
2018-03-25T07:43:00.153Z,10.51
2018-03-25T07:45:32.763Z,10.62
2018-03-25T07:48:05.301Z,10.75
2018-03-25T07:50:37.876Z,10.85
2018-03-25T07:53:10.464Z,10.77
2018-03-25T07:55:43.027Z,10.61
2018-03-25T07:58:15.579Z,10.85
2018-03-25T08:00:48.165Z,11.09
2018-03-25T08:03:20.723Z,11.25
2018-03-25T08:05:53.329Z,11.55
2018-03-25T08:08:25.888Z,11.54
2018-03-25T08:10:58.470Z,11.57
2018-03-25T08:13:32.632Z,11.27
2018-03-25T08:16:05.211Z,11.61
2018-03-25T08:18:37.795Z,11.92
2018-03-25T08:21:10.424Z,12.41
2018-03-25T08:23:42.994Z,12.42
2018-03-25T08:26:15.573Z,12.27
2018-03-25T08:28:48.127Z,12.36
2018-03-25T08:31:20.730Z,12.43
2018-03-25T08:33:53.333Z,12.59
2018-03-25T08:36:25.870Z,12.81
2018-03-25T08:38:58.386Z,12.67
2018-03-25T08:41:30.940Z,12.79
2018-03-25T08:44:03.461Z,12.77
2018-03-25T08:46:36.013Z,12.87
2018-03-25T08:49:08.587Z,13.03
2018-03-25T08:51:41.158Z,13.17
2018-03-25T08:54:13.735Z,13.32
2018-03-25T08:56:46.263Z,13.48
2018-03-25T08:59:18.792Z,13.58
2018-03-25T09:01:51.352Z,13.60
2018-03-25T09:04:23.886Z,13.70
2018-03-25T09:06:56.461Z,13.80
2018-03-25T09:09:29.008Z,13.89
2018-03-25T09:12:01.580Z,13.98
2018-03-25T09:14:34.128Z,14.06
2018-03-25T09:17:06.700Z,13.80
2018-03-25T09:19:39.227Z,13.56
2018-03-25T09:22:11.782Z,13.00
2018-03-25T09:24:44.306Z,12.81
2018-03-25T09:27:16.863Z,12.61
2018-03-25T09:29:49.417Z,12.66
2018-03-25T09:32:21.967Z,12.36
2018-03-25T09:34:54.491Z,12.35
2018-03-25T09:37:27.039Z,12.58
2018-03-25T09:39:59.587Z,12.95
2018-03-25T09:42:32.139Z,13.21
2018-03-25T09:45:04.676Z,13.54
2018-03-25T09:47:37.224Z,13.71
2018-03-25T09:50:09.751Z,14.02
2018-03-25T09:52:42.321Z,14.04
2018-03-25T09:55:14.843Z,13.89
2018-03-25T09:57:47.399Z,13.88
2018-03-25T10:03:32.795Z,14.26
2018-03-25T10:06:05.346Z,13.96
2018-03-25T10:08:37.899Z,13.31
2018-03-25T10:11:10.475Z,13.32
2018-03-25T10:13:43.042Z,13.59
2018-03-25T10:16:15.575Z,12.70
2018-03-25T10:18:48.128Z,12.29
2018-03-25T10:21:20.658Z,12.20
2018-03-25T10:23:53.205Z,13.43
2018-03-25T10:26:25.784Z,14.09
2018-03-25T10:28:58.320Z,14.49
2018-03-25T10:31:30.869Z,14.93
2018-03-25T10:34:03.424Z,14.76
2018-03-25T10:36:35.954Z,14.31
2018-03-25T10:39:08.494Z,14.79
2018-03-25T10:41:41.089Z,14.67
2018-03-25T10:44:13.645Z,14.60
2018-03-25T10:46:46.174Z,14.22
2018-03-25T10:49:18.743Z,14.11
2018-03-25T10:51:51.340Z,13.57
2018-03-25T10:54:23.891Z,12.80
2018-03-25T10:56:56.450Z,13.82
2018-03-25T10:59:29.042Z,13.61
2018-03-25T11:02:01.576Z,14.17
2018-03-25T11:04:34.156Z,13.44
2018-03-25T11:07:06.715Z,13.10
2018-03-25T11:09:39.298Z,13.15
2018-03-25T11:12:11.866Z,13.36
2018-03-25T11:14:44.459Z,13.57
2018-03-25T11:17:17.125Z,14.22
2018-03-25T11:19:49.644Z,14.45
2018-03-25T11:22:22.207Z,14.28
2018-03-25T11:24:54.749Z,14.53
2018-03-25T11:27:27.318Z,14.71
2018-03-25T11:29:59.862Z,14.89
2018-03-25T11:32:32.452Z,14.97
2018-03-25T11:35:05.003Z,15.27
2018-03-25T11:37:37.615Z,15.15
2018-03-25T11:40:10.220Z,14.49
2018-03-25T11:42:42.786Z,13.65
2018-03-25T11:45:15.330Z,13.94
2018-03-25T11:47:47.913Z,14.91
2018-03-25T11:50:20.481Z,15.46
2018-03-25T11:52:53.043Z,15.22
2018-03-25T11:55:25.592Z,14.59
2018-03-25T11:57:58.177Z,14.47
2018-03-25T12:00:30.724Z,15.14
2018-03-25T12:03:03.300Z,15.65
2018-03-25T12:05:35.844Z,15.20
2018-03-25T12:08:08.420Z,14.90
2018-03-25T12:10:40.967Z,14.17
2018-03-25T12:13:13.545Z,14.33
2018-03-25T12:15:46.125Z,14.04
2018-03-25T12:18:18.737Z,14.07
2018-03-25T12:20:51.321Z,14.73
2018-03-25T12:23:23.924Z,14.78
2018-03-25T12:25:56.488Z,15.32
2018-03-25T12:28:29.064Z,16.22
2018-03-25T12:31:01.620Z,16.23
2018-03-25T12:33:34.212Z,15.67
2018-03-25T12:36:06.770Z,15.13
2018-03-25T12:38:39.358Z,15.08
2018-03-25T12:41:11.931Z,15.38
2018-03-25T12:43:44.527Z,15.28
2018-03-25T12:46:17.097Z,15.39
2018-03-25T12:48:49.680Z,15.64
2018-03-25T12:51:22.256Z,15.64
2018-03-25T12:53:54.907Z,15.69
2018-03-25T12:56:27.477Z,15.66
2018-03-25T12:59:00.059Z,15.86
2018-03-25T13:01:32.610Z,16.33
2018-03-25T13:04:05.571Z,16.63
2018-03-25T13:06:38.179Z,16.73
2018-03-25T13:09:10.857Z,16.49
2018-03-25T13:11:43.435Z,16.11
2018-03-25T13:14:16.016Z,16.44
2018-03-25T13:16:48.687Z,16.65
2018-03-25T13:19:21.293Z,16.66
2018-03-25T13:21:53.861Z,16.55
2018-03-25T13:24:26.441Z,16.29
2018-03-25T13:26:59.010Z,15.75
2018-03-25T13:29:31.571Z,15.71
2018-03-25T13:32:04.146Z,15.61
2018-03-25T13:34:36.722Z,15.50
2018-03-25T13:37:09.276Z,15.61
2018-03-25T13:39:41.857Z,15.71
2018-03-25T13:42:14.416Z,15.65
2018-03-25T13:44:46.996Z,15.65
2018-03-25T13:47:19.539Z,15.68
2018-03-25T13:49:52.118Z,15.74
2018-03-25T13:52:24.684Z,15.56
2018-03-25T13:54:57.267Z,15.58
2018-03-25T13:57:29.837Z,15.59
2018-03-25T14:00:02.413Z,15.62
2018-03-25T14:02:34.984Z,15.46
2018-03-25T14:05:08.000Z,15.42
2018-03-25T14:07:40.553Z,14.95
2018-03-25T14:10:13.142Z,14.42
2018-03-25T14:12:45.704Z,14.24
2018-03-25T14:15:18.280Z,14.48
2018-03-25T14:17:50.813Z,14.83
2018-03-25T14:20:23.392Z,15.04
2018-03-25T14:22:55.944Z,15.18
2018-03-25T14:25:28.507Z,15.31
2018-03-25T14:28:01.082Z,15.55
2018-03-25T14:30:33.646Z,15.71
2018-03-25T14:33:06.228Z,15.84
2018-03-25T14:35:38.821Z,15.89
2018-03-25T14:38:11.370Z,16.01
2018-03-25T14:40:43.964Z,16.09
2018-03-25T14:43:16.537Z,16.09
2018-03-25T14:45:49.126Z,15.93
2018-03-25T14:48:21.700Z,15.87
2018-03-25T14:50:54.311Z,15.75
2018-03-25T14:53:26.879Z,15.78
2018-03-25T14:55:59.461Z,15.75
2018-03-25T14:58:32.015Z,15.61
2018-03-25T15:01:04.614Z,15.47
2018-03-25T15:03:37.188Z,15.48
2018-03-25T15:06:09.784Z,15.42
2018-03-25T15:08:42.359Z,15.35
2018-03-25T15:11:14.950Z,15.43
2018-03-25T15:13:47.492Z,15.44
2018-03-25T15:16:20.113Z,15.35
2018-03-25T15:18:52.678Z,15.25
2018-03-25T15:21:25.245Z,15.20
2018-03-25T15:23:57.807Z,14.98
2018-03-25T15:26:30.407Z,14.76
2018-03-25T15:29:02.988Z,14.58
2018-03-25T15:31:35.571Z,14.61
2018-03-25T15:34:08.173Z,14.51
2018-03-25T15:36:40.731Z,14.41
2018-03-25T15:39:13.351Z,14.27
2018-03-25T15:41:45.960Z,14.31
2018-03-25T15:44:18.507Z,14.32
2018-03-25T15:46:51.053Z,14.36
2018-03-25T15:49:23.631Z,14.38
2018-03-25T15:51:56.167Z,14.39
2018-03-25T15:54:28.727Z,14.31
2018-03-25T15:57:01.287Z,14.23
2018-03-25T15:59:33.860Z,14.17
2018-03-25T16:02:06.419Z,14.10
2018-03-25T16:04:38.988Z,14.05
2018-03-25T16:07:11.539Z,14.08
2018-03-25T16:09:44.133Z,14.01
2018-03-25T16:12:16.699Z,14.03
2018-03-25T16:14:49.297Z,13.98
2018-03-25T16:17:21.844Z,13.95
2018-03-25T16:19:54.425Z,14.00
2018-03-25T16:22:26.957Z,14.08
2018-03-25T16:24:59.521Z,13.89
2018-03-25T16:27:32.053Z,13.89
2018-03-25T16:30:04.611Z,13.82
2018-03-25T16:32:37.151Z,13.76
2018-03-25T16:35:09.727Z,13.75
2018-03-25T16:37:42.284Z,13.58
2018-03-25T16:40:14.865Z,13.53
2018-03-25T16:42:47.436Z,13.48
2018-03-25T16:45:20.012Z,13.52
2018-03-25T16:47:52.565Z,13.54
2018-03-25T16:50:25.116Z,13.55
2018-03-25T16:52:57.700Z,13.49
2018-03-25T16:55:30.277Z,13.45
2018-03-25T16:58:02.849Z,13.42
2018-03-25T17:00:35.440Z,13.43
2018-03-25T17:03:07.991Z,13.48
2018-03-25T17:05:40.577Z,13.42
2018-03-25T17:08:13.132Z,13.35
2018-03-25T17:10:45.691Z,13.28
2018-03-25T17:13:19.275Z,13.18
2018-03-25T17:15:51.824Z,13.21
2018-03-25T17:18:24.467Z,13.11
2018-03-25T17:20:57.066Z,13.03
2018-03-25T17:23:29.654Z,13.03
2018-03-25T17:26:02.182Z,13.01
2018-03-25T17:28:34.727Z,12.97
2018-03-25T17:31:07.311Z,12.98
2018-03-25T17:33:39.855Z,12.85
2018-03-25T17:36:12.454Z,12.83
2018-03-25T17:38:45.000Z,12.75
2018-03-25T17:41:18.973Z,12.66
2018-03-25T17:43:51.710Z,12.68
2018-03-25T17:46:24.279Z,12.64
2018-03-25T17:48:56.841Z,12.69
2018-03-25T17:51:29.393Z,12.66
2018-03-25T17:54:01.949Z,12.61
2018-03-25T17:59:13.193Z,12.57
2018-03-25T18:01:45.963Z,12.54
2018-03-25T18:04:18.504Z,12.55
2018-03-25T18:06:51.096Z,12.53
2018-03-25T18:09:23.674Z,12.53
2018-03-25T18:11:56.253Z,12.50
2018-03-25T18:14:28.833Z,12.48
2018-03-25T18:17:01.462Z,12.45
2018-03-25T18:19:34.023Z,12.40
2018-03-25T18:22:06.594Z,12.41
2018-03-25T18:24:39.158Z,12.43
2018-03-25T18:27:11.733Z,12.44
2018-03-25T18:29:44.298Z,12.44
2018-03-25T18:32:16.883Z,12.48
2018-03-25T18:34:49.420Z,12.48
2018-03-25T18:37:22.022Z,12.45
2018-03-25T18:39:54.583Z,12.46
2018-03-25T18:42:27.184Z,12.43
2018-03-25T18:44:59.730Z,12.42
2018-03-25T18:47:32.340Z,12.46
2018-03-25T18:50:04.916Z,12.48
2018-03-25T18:52:37.518Z,12.47
2018-03-25T18:55:10.095Z,12.46
2018-03-25T18:57:50.837Z,12.39
2018-03-25T19:00:24.234Z,12.39
2018-03-25T19:02:56.806Z,12.38
2018-03-25T19:05:29.485Z,12.36
2018-03-25T19:08:02.148Z,12.28
2018-03-25T19:10:34.729Z,12.22
2018-03-25T19:13:07.285Z,12.14
2018-03-25T19:15:39.882Z,12.10
2018-03-25T19:18:12.441Z,12.00
2018-03-25T19:20:45.024Z,11.99
2018-03-25T19:23:17.612Z,11.94
2018-03-25T19:25:50.329Z,11.94
2018-03-25T19:28:22.944Z,11.89
2018-03-25T19:30:55.537Z,11.86
2018-03-25T19:33:28.216Z,11.79
2018-03-25T19:36:00.813Z,11.81
2018-03-25T19:38:33.411Z,11.80
2018-03-25T19:41:05.996Z,11.76
2018-03-25T19:43:38.558Z,11.72
2018-03-25T19:46:11.153Z,11.68
2018-03-25T19:48:43.732Z,11.58
2018-03-25T19:51:16.348Z,11.50
2018-03-25T19:53:48.933Z,11.52
2018-03-25T19:56:23.895Z,11.51
2018-03-25T19:58:56.761Z,11.49
2018-03-25T20:01:30.938Z,11.45
2018-03-25T20:04:03.531Z,11.41
2018-03-25T20:06:36.126Z,11.43
2018-03-25T20:09:08.702Z,11.44
2018-03-25T20:11:41.503Z,11.41
2018-03-25T20:14:14.355Z,11.34
2018-03-25T20:16:46.955Z,11.28
2018-03-25T20:19:19.518Z,11.27
2018-03-25T20:21:52.110Z,11.25
2018-03-25T20:24:24.715Z,11.22
2018-03-25T20:26:57.321Z,11.13
2018-03-25T20:29:30.009Z,11.03
2018-03-25T20:32:02.683Z,10.97
2018-03-25T20:34:35.297Z,11.03
2018-03-25T20:37:07.895Z,11.01
2018-03-25T20:39:40.507Z,10.81
2018-03-25T20:42:13.124Z,10.71
2018-03-25T20:44:45.719Z,10.69
2018-03-25T20:47:18.309Z,10.68
2018-03-25T20:49:50.857Z,10.41
2018-03-25T20:52:23.450Z,10.52
2018-03-25T20:54:56.047Z,10.54
2018-03-25T20:57:28.647Z,10.52
2018-03-25T21:00:01.210Z,10.56
2018-03-25T21:02:33.784Z,10.60
2018-03-25T21:05:06.350Z,10.61
2018-03-25T21:07:38.931Z,10.64
2018-03-25T21:10:11.680Z,10.61
2018-03-25T21:12:44.286Z,10.59
2018-03-25T21:15:16.848Z,10.53
2018-03-25T21:17:49.423Z,10.57
2018-03-25T21:20:21.994Z,10.58
2018-03-25T21:22:54.593Z,10.56
2018-03-25T21:25:27.138Z,10.56
2018-03-25T21:27:59.743Z,10.53
2018-03-25T21:30:32.339Z,10.49
2018-03-25T21:33:04.933Z,10.46
2018-03-25T21:35:37.507Z,10.36
2018-03-25T21:38:13.095Z,10.34
2018-03-25T21:40:45.700Z,10.34
2018-03-25T21:43:18.492Z,10.35
2018-03-25T21:45:51.062Z,10.27
2018-03-25T21:48:23.670Z,10.11
2018-03-25T21:50:56.258Z,9.87
2018-03-25T21:53:28.834Z,9.92
2018-03-25T21:56:01.379Z,9.96
2018-03-25T21:58:34.022Z,10.12
2018-03-25T22:01:06.586Z,10.23
2018-03-25T22:03:39.180Z,10.26
2018-03-25T22:06:11.750Z,10.29
2018-03-25T22:08:44.329Z,10.31
2018-03-25T22:11:16.883Z,10.30
2018-03-25T22:13:49.453Z,10.26
2018-03-25T22:16:22.022Z,10.24
2018-03-25T22:19:00.605Z,10.21
2018-03-25T22:21:33.187Z,10.17
2018-03-25T22:24:05.741Z,10.19
2018-03-25T22:26:38.321Z,10.21
2018-03-25T22:29:10.904Z,10.19
2018-03-25T22:31:43.499Z,10.20
2018-03-25T22:34:16.087Z,10.23
2018-03-25T22:36:48.661Z,10.23
2018-03-25T22:39:21.652Z,10.21
2018-03-25T22:41:54.398Z,10.22
2018-03-25T22:44:26.968Z,10.20
2018-03-25T22:46:59.550Z,10.19
2018-03-25T22:49:32.130Z,10.20
2018-03-25T22:52:04.703Z,10.17
2018-03-25T22:54:37.265Z,10.14
2018-03-25T22:57:09.844Z,10.12
2018-03-25T22:59:42.456Z,10.09
2018-03-25T23:02:15.024Z,10.04
2018-03-25T23:04:47.606Z,10.05
2018-03-25T23:07:20.183Z,9.90
2018-03-25T23:09:52.727Z,9.75
2018-03-25T23:12:25.330Z,9.74
2018-03-25T23:14:57.870Z,9.79
2018-03-25T23:17:30.443Z,9.86
2018-03-25T23:20:02.967Z,9.87
2018-03-25T23:22:35.558Z,9.92
2018-03-25T23:25:08.124Z,9.95
2018-03-25T23:27:40.740Z,9.83
2018-03-25T23:30:13.287Z,9.56
2018-03-25T23:32:45.888Z,9.39
2018-03-25T23:35:18.424Z,9.44
2018-03-25T23:37:50.996Z,9.14
2018-03-25T23:40:23.548Z,8.87
2018-03-25T23:42:56.128Z,9.11
2018-03-25T23:45:28.663Z,8.97
2018-03-25T23:48:01.224Z,9.13
2018-03-25T23:50:33.789Z,9.17
2018-03-25T23:53:06.415Z,9.33
2018-03-25T23:55:38.983Z,9.37
2018-03-25T23:58:11.568Z,9.11
